sensor_id;sensor_type;location;lat;lon;timestamp;P1;durP1;ratioP1;P2;durP2;ratioP2
15230;SDS011;32569;51.762;8.564;2022-12-29T00:00:09;1.83;;;1.73;;
15230;SDS011;32569;51.762;8.564;2022-12-29T00:02:37;1.70;;;1.60;;
15230;SDS011;32569;51.762;8.564;2022-12-29T00:05:04;1.60;;;1.50;;
15230;SDS011;32569;51.762;8.564;2022-12-29T00:07:31;1.60;;;1.50;;
15230;SDS011;32569;51.762;8.564;2022-12-29T00:09:58;1.73;;;1.50;;
15230;SDS011;32569;51.762;8.564;2022-12-29T00:12:25;1.57;;;1.40;;
15230;SDS011;32569;51.762;8.564;2022-12-29T00:15:13;1.40;;;1.30;;
15230;SDS011;32569;51.762;8.564;2022-12-29T00:17:58;1.60;;;1.50;;
15230;SDS011;32569;51.762;8.564;2022-12-29T00:20:24;1.70;;;1.60;;
15230;SDS011;32569;51.762;8.564;2022-12-29T00:23:12;1.50;;;1.40;;
15230;SDS011;32569;51.762;8.564;2022-12-29T00:25:56;1.57;;;1.47;;
15230;SDS011;32569;51.762;8.564;2022-12-29T00:28:39;1.50;;;1.40;;
15230;SDS011;32569;51.762;8.564;2022-12-29T00:31:33;1.43;;;1.33;;
15230;SDS011;32569;51.762;8.564;2022-12-29T00:34:18;2.23;;;1.57;;
15230;SDS011;32569;51.762;8.564;2022-12-29T00:37:02;1.87;;;1.27;;
15230;SDS011;32569;51.762;8.564;2022-12-29T00:39:28;1.60;;;1.50;;
15230;SDS011;32569;51.762;8.564;2022-12-29T00:42:13;1.20;;;1.20;;
15230;SDS011;32569;51.762;8.564;2022-12-29T00:44:53;1.13;;;1.13;;
15230;SDS011;32569;51.762;8.564;2022-12-29T00:47:21;1.57;;;1.47;;
15230;SDS011;32569;51.762;8.564;2022-12-29T00:49:48;1.50;;;1.40;;
15230;SDS011;32569;51.762;8.564;2022-12-29T00:52:13;1.47;;;1.37;;
15230;SDS011;32569;51.762;8.564;2022-12-29T00:54:40;1.87;;;1.40;;
15230;SDS011;32569;51.762;8.564;2022-12-29T00:57:09;1.60;;;1.30;;
15230;SDS011;32569;51.762;8.564;2022-12-29T00:59:37;1.60;;;1.50;;
15230;SDS011;32569;51.762;8.564;2022-12-29T01:02:05;1.20;;;1.20;;
15230;SDS011;32569;51.762;8.564;2022-12-29T01:04:34;1.37;;;1.27;;
15230;SDS011;32569;51.762;8.564;2022-12-29T01:07:00;1.47;;;1.40;;
15230;SDS011;32569;51.762;8.564;2022-12-29T01:09:27;1.30;;;1.30;;
15230;SDS011;32569;51.762;8.564;2022-12-29T01:12:11;1.03;;;1.03;;
15230;SDS011;32569;51.762;8.564;2022-12-29T01:14:38;1.50;;;1.40;;
15230;SDS011;32569;51.762;8.564;2022-12-29T01:17:05;1.60;;;1.50;;
15230;SDS011;32569;51.762;8.564;2022-12-29T01:19:32;1.50;;;1.40;;
15230;SDS011;32569;51.762;8.564;2022-12-29T01:22:02;1.47;;;1.37;;
15230;SDS011;32569;51.762;8.564;2022-12-29T01:24:29;1.33;;;1.23;;
15230;SDS011;32569;51.762;8.564;2022-12-29T01:26:56;1.60;;;1.50;;
15230;SDS011;32569;51.762;8.564;2022-12-29T01:29:22;1.40;;;1.30;;
15230;SDS011;32569;51.762;8.564;2022-12-29T01:31:49;1.33;;;1.23;;
15230;SDS011;32569;51.762;8.564;2022-12-29T01:34:16;1.40;;;1.20;;
15230;SDS011;32569;51.762;8.564;2022-12-29T01:36:44;1.40;;;1.30;;
15230;SDS011;32569;51.762;8.564;2022-12-29T01:39:10;1.87;;;1.20;;
15230;SDS011;32569;51.762;8.564;2022-12-29T01:41:37;1.30;;;1.27;;
15230;SDS011;32569;51.762;8.564;2022-12-29T01:47:04;1.33;;;1.30;;
15230;SDS011;32569;51.762;8.564;2022-12-29T01:49:30;1.27;;;1.10;;
15230;SDS011;32569;51.762;8.564;2022-12-29T01:51:59;1.27;;;1.20;;
15230;SDS011;32569;51.762;8.564;2022-12-29T01:54:30;1.60;;;1.50;;
15230;SDS011;32569;51.762;8.564;2022-12-29T01:57:00;1.17;;;1.17;;
15230;SDS011;32569;51.762;8.564;2022-12-29T01:59:31;0.90;;;0.90;;
15230;SDS011;32569;51.762;8.564;2022-12-29T02:02:03;1.40;;;1.30;;
15230;SDS011;32569;51.762;8.564;2022-12-29T02:04:31;1.40;;;1.30;;
15230;SDS011;32569;51.762;8.564;2022-12-29T02:07:00;1.13;;;1.03;;
15230;SDS011;32569;51.762;8.564;2022-12-29T02:09:30;1.07;;;1.07;;
15230;SDS011;32569;51.762;8.564;2022-12-29T02:11:57;1.60;;;1.50;;
15230;SDS011;32569;51.762;8.564;2022-12-29T02:14:25;1.07;;;1.07;;
15230;SDS011;32569;51.762;8.564;2022-12-29T02:16:56;1.47;;;1.10;;
15230;SDS011;32569;51.762;8.564;2022-12-29T02:22:33;0.90;;;0.90;;
15230;SDS011;32569;51.762;8.564;2022-12-29T02:28:16;0.80;;;0.80;;
15230;SDS011;32569;51.762;8.564;2022-12-29T02:31:08;1.00;;;1.00;;
15230;SDS011;32569;51.762;8.564;2022-12-29T02:33:44;0.93;;;0.93;;
15230;SDS011;32569;51.762;8.564;2022-12-29T02:36:24;0.93;;;0.93;;
15230;SDS011;32569;51.762;8.564;2022-12-29T02:38:58;0.80;;;0.80;;
15230;SDS011;32569;51.762;8.564;2022-12-29T02:41:30;0.90;;;0.90;;
15230;SDS011;32569;51.762;8.564;2022-12-29T02:43:59;0.90;;;0.90;;
15230;SDS011;32569;51.762;8.564;2022-12-29T02:46:34;0.80;;;0.80;;
15230;SDS011;32569;51.762;8.564;2022-12-29T02:49:05;0.80;;;0.80;;
15230;SDS011;32569;51.762;8.564;2022-12-29T02:51:39;0.90;;;0.90;;
15230;SDS011;32569;51.762;8.564;2022-12-29T02:54:10;0.60;;;0.60;;
15230;SDS011;32569;51.762;8.564;2022-12-29T02:56:54;0.90;;;0.90;;
15230;SDS011;32569;51.762;8.564;2022-12-29T02:59:21;0.83;;;0.83;;
15230;SDS011;32569;51.762;8.564;2022-12-29T03:01:55;0.90;;;0.90;;
15230;SDS011;32569;51.762;8.564;2022-12-29T03:05:05;1.60;;;1.13;;
15230;SDS011;32569;51.762;8.564;2022-12-29T03:07:43;1.23;;;0.90;;
15230;SDS011;32569;51.762;8.564;2022-12-29T03:10:23;1.23;;;1.13;;
15230;SDS011;32569;51.762;8.564;2022-12-29T03:13:00;1.50;;;1.00;;
15230;SDS011;32569;51.762;8.564;2022-12-29T03:15:49;0.87;;;0.87;;
15230;SDS011;32569;51.762;8.564;2022-12-29T03:18:31;1.07;;;1.07;;
15230;SDS011;32569;51.762;8.564;2022-12-29T03:21:12;0.90;;;0.90;;
15230;SDS011;32569;51.762;8.564;2022-12-29T03:23:43;1.00;;;1.00;;
15230;SDS011;32569;51.762;8.564;2022-12-29T03:26:12;0.80;;;0.80;;
15230;SDS011;32569;51.762;8.564;2022-12-29T03:28:42;0.80;;;0.80;;
15230;SDS011;32569;51.762;8.564;2022-12-29T03:31:13;0.70;;;0.70;;
15230;SDS011;32569;51.762;8.564;2022-12-29T03:33:45;1.03;;;0.90;;
15230;SDS011;32569;51.762;8.564;2022-12-29T03:36:15;0.80;;;0.80;;
15230;SDS011;32569;51.762;8.564;2022-12-29T03:38:45;0.90;;;0.90;;
15230;SDS011;32569;51.762;8.564;2022-12-29T03:41:17;0.87;;;0.87;;
15230;SDS011;32569;51.762;8.564;2022-12-29T03:43:46;0.80;;;0.80;;
15230;SDS011;32569;51.762;8.564;2022-12-29T03:46:13;1.13;;;1.10;;
15230;SDS011;32569;51.762;8.564;2022-12-29T03:48:40;1.10;;;1.10;;
15230;SDS011;32569;51.762;8.564;2022-12-29T03:51:08;1.20;;;1.10;;
15230;SDS011;32569;51.762;8.564;2022-12-29T03:53:35;0.90;;;0.87;;
15230;SDS011;32569;51.762;8.564;2022-12-29T03:56:01;0.97;;;0.97;;
15230;SDS011;32569;51.762;8.564;2022-12-29T03:58:29;1.00;;;1.00;;
15230;SDS011;32569;51.762;8.564;2022-12-29T04:00:58;1.47;;;1.27;;
15230;SDS011;32569;51.762;8.564;2022-12-29T04:03:25;0.87;;;0.87;;
15230;SDS011;32569;51.762;8.564;2022-12-29T04:05:54;1.07;;;0.90;;
15230;SDS011;32569;51.762;8.564;2022-12-29T04:08:22;1.00;;;0.90;;
15230;SDS011;32569;51.762;8.564;2022-12-29T04:10:49;1.00;;;0.90;;
15230;SDS011;32569;51.762;8.564;2022-12-29T04:13:16;0.80;;;0.80;;
15230;SDS011;32569;51.762;8.564;2022-12-29T04:15:42;1.10;;;1.00;;
15230;SDS011;32569;51.762;8.564;2022-12-29T04:18:10;0.80;;;0.80;;
15230;SDS011;32569;51.762;8.564;2022-12-29T04:20:36;1.23;;;1.10;;
15230;SDS011;32569;51.762;8.564;2022-12-29T04:23:22;1.13;;;1.03;;
15230;SDS011;32569;51.762;8.564;2022-12-29T04:25:49;1.60;;;0.90;;
15230;SDS011;32569;51.762;8.564;2022-12-29T04:28:19;1.63;;;1.00;;
15230;SDS011;32569;51.762;8.564;2022-12-29T04:30:45;0.80;;;0.80;;
15230;SDS011;32569;51.762;8.564;2022-12-29T04:33:12;0.93;;;0.90;;
15230;SDS011;32569;51.762;8.564;2022-12-29T04:35:39;0.70;;;0.70;;
15230;SDS011;32569;51.762;8.564;2022-12-29T04:38:07;1.10;;;0.80;;
15230;SDS011;32569;51.762;8.564;2022-12-29T04:40:38;1.47;;;0.90;;
15230;SDS011;32569;51.762;8.564;2022-12-29T04:43:05;1.00;;;1.00;;
15230;SDS011;32569;51.762;8.564;2022-12-29T04:45:31;1.53;;;1.10;;
15230;SDS011;32569;51.762;8.564;2022-12-29T04:47:58;1.17;;;1.07;;
15230;SDS011;32569;51.762;8.564;2022-12-29T04:50:25;1.80;;;0.83;;
15230;SDS011;32569;51.762;8.564;2022-12-29T04:52:52;0.90;;;0.90;;
15230;SDS011;32569;51.762;8.564;2022-12-29T04:55:19;1.00;;;1.00;;
15230;SDS011;32569;51.762;8.564;2022-12-29T04:57:47;1.13;;;0.77;;
15230;SDS011;32569;51.762;8.564;2022-12-29T05:00:14;1.07;;;1.00;;
15230;SDS011;32569;51.762;8.564;2022-12-29T05:02:40;1.23;;;1.00;;
15230;SDS011;32569;51.762;8.564;2022-12-29T05:05:07;0.83;;;0.83;;
15230;SDS011;32569;51.762;8.564;2022-12-29T05:07:34;0.90;;;0.90;;
15230;SDS011;32569;51.762;8.564;2022-12-29T05:10:01;1.07;;;1.07;;
15230;SDS011;32569;51.762;8.564;2022-12-29T05:12:29;0.70;;;0.70;;
15230;SDS011;32569;51.762;8.564;2022-12-29T05:14:58;0.90;;;0.90;;
15230;SDS011;32569;51.762;8.564;2022-12-29T05:17:24;1.17;;;0.90;;
15230;SDS011;32569;51.762;8.564;2022-12-29T05:19:51;0.77;;;0.77;;
15230;SDS011;32569;51.762;8.564;2022-12-29T05:22:18;0.80;;;0.80;;
15230;SDS011;32569;51.762;8.564;2022-12-29T05:24:47;0.97;;;0.97;;
15230;SDS011;32569;51.762;8.564;2022-12-29T05:27:13;0.70;;;0.70;;
15230;SDS011;32569;51.762;8.564;2022-12-29T05:29:40;0.83;;;0.83;;
15230;SDS011;32569;51.762;8.564;2022-12-29T05:32:08;0.70;;;0.70;;
15230;SDS011;32569;51.762;8.564;2022-12-29T05:34:35;1.07;;;0.90;;
15230;SDS011;32569;51.762;8.564;2022-12-29T05:37:02;0.83;;;0.83;;
15230;SDS011;32569;51.762;8.564;2022-12-29T05:39:28;0.97;;;0.70;;
15230;SDS011;32569;51.762;8.564;2022-12-29T05:41:55;1.20;;;0.80;;
15230;SDS011;32569;51.762;8.564;2022-12-29T05:44:21;1.00;;;1.00;;
15230;SDS011;32569;51.762;8.564;2022-12-29T05:46:48;1.10;;;1.00;;
15230;SDS011;32569;51.762;8.564;2022-12-29T05:49:16;0.80;;;0.80;;
15230;SDS011;32569;51.762;8.564;2022-12-29T05:51:43;1.03;;;0.90;;
15230;SDS011;32569;51.762;8.564;2022-12-29T05:54:10;1.10;;;1.00;;
15230;SDS011;32569;51.762;8.564;2022-12-29T05:56:37;0.60;;;0.60;;
15230;SDS011;32569;51.762;8.564;2022-12-29T05:59:03;0.80;;;0.80;;
15230;SDS011;32569;51.762;8.564;2022-12-29T06:01:30;0.90;;;0.90;;
15230;SDS011;32569;51.762;8.564;2022-12-29T06:03:58;0.93;;;0.93;;
15230;SDS011;32569;51.762;8.564;2022-12-29T06:06:26;1.53;;;0.83;;
15230;SDS011;32569;51.762;8.564;2022-12-29T06:08:56;1.07;;;0.80;;
15230;SDS011;32569;51.762;8.564;2022-12-29T06:11:22;0.80;;;0.80;;
15230;SDS011;32569;51.762;8.564;2022-12-29T06:13:49;0.87;;;0.87;;
15230;SDS011;32569;51.762;8.564;2022-12-29T06:16:16;0.90;;;0.90;;
15230;SDS011;32569;51.762;8.564;2022-12-29T06:18:42;1.00;;;1.00;;
15230;SDS011;32569;51.762;8.564;2022-12-29T06:21:09;0.90;;;0.90;;
15230;SDS011;32569;51.762;8.564;2022-12-29T06:23:37;1.00;;;0.90;;
15230;SDS011;32569;51.762;8.564;2022-12-29T06:26:03;0.80;;;0.80;;
15230;SDS011;32569;51.762;8.564;2022-12-29T06:28:30;0.70;;;0.70;;
15230;SDS011;32569;51.762;8.564;2022-12-29T06:30:57;1.10;;;1.00;;
15230;SDS011;32569;51.762;8.564;2022-12-29T06:33:26;1.10;;;1.10;;
15230;SDS011;32569;51.762;8.564;2022-12-29T06:35:53;1.00;;;0.93;;
15230;SDS011;32569;51.762;8.564;2022-12-29T06:38:20;1.00;;;0.90;;
15230;SDS011;32569;51.762;8.564;2022-12-29T06:40:48;1.13;;;0.70;;
15230;SDS011;32569;51.762;8.564;2022-12-29T06:43:17;0.80;;;0.80;;
15230;SDS011;32569;51.762;8.564;2022-12-29T06:45:50;0.80;;;0.67;;
15230;SDS011;32569;51.762;8.564;2022-12-29T06:48:16;1.30;;;1.20;;
15230;SDS011;32569;51.762;8.564;2022-12-29T06:50:43;1.10;;;1.00;;
15230;SDS011;32569;51.762;8.564;2022-12-29T06:53:09;1.30;;;1.07;;
15230;SDS011;32569;51.762;8.564;2022-12-29T06:55:36;0.80;;;0.80;;
15230;SDS011;32569;51.762;8.564;2022-12-29T06:58:04;1.13;;;0.90;;
15230;SDS011;32569;51.762;8.564;2022-12-29T07:00:31;0.73;;;0.73;;
15230;SDS011;32569;51.762;8.564;2022-12-29T07:02:58;1.30;;;1.20;;
15230;SDS011;32569;51.762;8.564;2022-12-29T07:05:24;1.07;;;1.07;;
15230;SDS011;32569;51.762;8.564;2022-12-29T07:07:52;1.20;;;1.10;;
15230;SDS011;32569;51.762;8.564;2022-12-29T07:10:19;1.00;;;1.00;;
15230;SDS011;32569;51.762;8.564;2022-12-29T07:12:46;1.00;;;0.90;;
15230;SDS011;32569;51.762;8.564;2022-12-29T07:15:14;0.73;;;0.73;;
15230;SDS011;32569;51.762;8.564;2022-12-29T07:17:40;1.43;;;0.80;;
15230;SDS011;32569;51.762;8.564;2022-12-29T07:20:07;1.27;;;1.10;;
15230;SDS011;32569;51.762;8.564;2022-12-29T07:22:35;1.00;;;0.90;;
15230;SDS011;32569;51.762;8.564;2022-12-29T07:25:03;1.00;;;1.00;;
15230;SDS011;32569;51.762;8.564;2022-12-29T07:27:30;1.00;;;0.90;;
15230;SDS011;32569;51.762;8.564;2022-12-29T07:29:57;1.67;;;1.47;;
15230;SDS011;32569;51.762;8.564;2022-12-29T07:32:25;1.03;;;1.00;;
15230;SDS011;32569;51.762;8.564;2022-12-29T07:34:52;0.90;;;0.90;;
15230;SDS011;32569;51.762;8.564;2022-12-29T07:37:18;1.30;;;1.13;;
15230;SDS011;32569;51.762;8.564;2022-12-29T07:39:45;1.00;;;1.00;;
15230;SDS011;32569;51.762;8.564;2022-12-29T07:42:12;0.80;;;0.80;;
15230;SDS011;32569;51.762;8.564;2022-12-29T07:44:38;1.90;;;1.00;;
15230;SDS011;32569;51.762;8.564;2022-12-29T07:47:05;1.20;;;0.90;;
15230;SDS011;32569;51.762;8.564;2022-12-29T07:49:33;1.10;;;1.00;;
15230;SDS011;32569;51.762;8.564;2022-12-29T07:52:00;0.97;;;0.97;;
15230;SDS011;32569;51.762;8.564;2022-12-29T07:54:26;2.47;;;1.47;;
15230;SDS011;32569;51.762;8.564;2022-12-29T07:56:53;1.27;;;1.13;;
15230;SDS011;32569;51.762;8.564;2022-12-29T07:59:20;1.10;;;1.10;;
15230;SDS011;32569;51.762;8.564;2022-12-29T08:01:46;1.20;;;1.10;;
15230;SDS011;32569;51.762;8.564;2022-12-29T08:04:13;1.37;;;1.27;;
15230;SDS011;32569;51.762;8.564;2022-12-29T08:06:41;3.07;;;1.50;;
15230;SDS011;32569;51.762;8.564;2022-12-29T08:09:10;1.30;;;1.20;;
15230;SDS011;32569;51.762;8.564;2022-12-29T08:11:37;1.23;;;1.23;;
15230;SDS011;32569;51.762;8.564;2022-12-29T08:14:05;2.33;;;1.20;;
15230;SDS011;32569;51.762;8.564;2022-12-29T08:16:32;1.97;;;1.30;;
15230;SDS011;32569;51.762;8.564;2022-12-29T08:18:58;1.00;;;1.00;;
15230;SDS011;32569;51.762;8.564;2022-12-29T08:21:26;0.90;;;0.90;;
15230;SDS011;32569;51.762;8.564;2022-12-29T08:23:55;1.00;;;1.00;;
15230;SDS011;32569;51.762;8.564;2022-12-29T08:26:22;0.93;;;0.93;;
15230;SDS011;32569;51.762;8.564;2022-12-29T08:28:48;1.33;;;1.00;;
15230;SDS011;32569;51.762;8.564;2022-12-29T08:31:15;2.40;;;1.50;;
15230;SDS011;32569;51.762;8.564;2022-12-29T08:33:42;1.47;;;1.27;;
15230;SDS011;32569;51.762;8.564;2022-12-29T08:36:11;1.23;;;1.20;;
15230;SDS011;32569;51.762;8.564;2022-12-29T08:38:38;1.33;;;1.03;;
15230;SDS011;32569;51.762;8.564;2022-12-29T08:41:06;1.67;;;0.93;;
15230;SDS011;32569;51.762;8.564;2022-12-29T08:43:33;1.10;;;1.00;;
15230;SDS011;32569;51.762;8.564;2022-12-29T08:46:00;1.57;;;1.17;;
15230;SDS011;32569;51.762;8.564;2022-12-29T08:48:26;1.33;;;1.23;;
15230;SDS011;32569;51.762;8.564;2022-12-29T08:50:53;1.97;;;1.13;;
15230;SDS011;32569;51.762;8.564;2022-12-29T08:53:20;1.30;;;1.20;;
15230;SDS011;32569;51.762;8.564;2022-12-29T08:55:47;2.03;;;1.50;;
15230;SDS011;32569;51.762;8.564;2022-12-29T08:58:22;1.80;;;1.30;;
15230;SDS011;32569;51.762;8.564;2022-12-29T09:00:48;1.73;;;1.20;;
15230;SDS011;32569;51.762;8.564;2022-12-29T09:03:15;1.70;;;1.37;;
15230;SDS011;32569;51.762;8.564;2022-12-29T09:05:41;2.03;;;1.20;;
15230;SDS011;32569;51.762;8.564;2022-12-29T09:08:08;2.80;;;1.37;;
15230;SDS011;32569;51.762;8.564;2022-12-29T09:10:35;2.60;;;1.27;;
15230;SDS011;32569;51.762;8.564;2022-12-29T09:13:01;1.97;;;1.30;;
15230;SDS011;32569;51.762;8.564;2022-12-29T09:15:29;4.17;;;2.03;;
15230;SDS011;32569;51.762;8.564;2022-12-29T09:17:56;1.90;;;1.30;;
15230;SDS011;32569;51.762;8.564;2022-12-29T09:20:23;1.63;;;1.33;;
15230;SDS011;32569;51.762;8.564;2022-12-29T09:22:49;1.80;;;1.30;;
15230;SDS011;32569;51.762;8.564;2022-12-29T09:25:16;1.60;;;1.50;;
15230;SDS011;32569;51.762;8.564;2022-12-29T09:27:43;3.13;;;1.57;;
15230;SDS011;32569;51.762;8.564;2022-12-29T09:30:10;1.80;;;1.63;;
15230;SDS011;32569;51.762;8.564;2022-12-29T09:32:40;1.50;;;1.40;;
15230;SDS011;32569;51.762;8.564;2022-12-29T09:35:07;2.57;;;1.47;;
15230;SDS011;32569;51.762;8.564;2022-12-29T09:37:34;1.70;;;1.60;;
15230;SDS011;32569;51.762;8.564;2022-12-29T09:40:04;1.70;;;1.30;;
15230;SDS011;32569;51.762;8.564;2022-12-29T09:42:32;1.77;;;1.50;;
15230;SDS011;32569;51.762;8.564;2022-12-29T09:45:08;2.23;;;1.37;;
15230;SDS011;32569;51.762;8.564;2022-12-29T09:47:40;1.77;;;1.50;;
15230;SDS011;32569;51.762;8.564;2022-12-29T09:50:20;2.23;;;1.40;;
15230;SDS011;32569;51.762;8.564;2022-12-29T09:52:58;3.10;;;1.33;;
15230;SDS011;32569;51.762;8.564;2022-12-29T09:55:33;1.43;;;1.30;;
15230;SDS011;32569;51.762;8.564;2022-12-29T09:58:12;3.77;;;1.70;;
15230;SDS011;32569;51.762;8.564;2022-12-29T10:00:44;2.70;;;1.20;;
15230;SDS011;32569;51.762;8.564;2022-12-29T10:03:16;1.87;;;1.20;;
15230;SDS011;32569;51.762;8.564;2022-12-29T10:05:46;1.93;;;1.80;;
15230;SDS011;32569;51.762;8.564;2022-12-29T10:08:20;3.67;;;1.40;;
15230;SDS011;32569;51.762;8.564;2022-12-29T10:10:54;3.10;;;1.60;;
15230;SDS011;32569;51.762;8.564;2022-12-29T10:13:32;2.03;;;1.43;;
15230;SDS011;32569;51.762;8.564;2022-12-29T10:16:08;2.90;;;2.03;;
15230;SDS011;32569;51.762;8.564;2022-12-29T10:21:33;1.60;;;1.47;;
15230;SDS011;32569;51.762;8.564;2022-12-29T10:24:06;1.50;;;1.33;;
15230;SDS011;32569;51.762;8.564;2022-12-29T10:26:37;2.70;;;1.30;;
15230;SDS011;32569;51.762;8.564;2022-12-29T10:29:06;3.10;;;1.93;;
15230;SDS011;32569;51.762;8.564;2022-12-29T10:31:41;3.77;;;2.20;;
15230;SDS011;32569;51.762;8.564;2022-12-29T10:34:13;2.60;;;1.20;;
15230;SDS011;32569;51.762;8.564;2022-12-29T10:36:44;3.00;;;1.47;;
15230;SDS011;32569;51.762;8.564;2022-12-29T10:39:14;7.23;;;1.50;;
15230;SDS011;32569;51.762;8.564;2022-12-29T10:41:48;2.57;;;1.40;;
15230;SDS011;32569;51.762;8.564;2022-12-29T10:44:21;2.97;;;1.50;;
15230;SDS011;32569;51.762;8.564;2022-12-29T10:46:51;3.50;;;1.30;;
15230;SDS011;32569;51.762;8.564;2022-12-29T10:49:22;2.97;;;1.57;;
15230;SDS011;32569;51.762;8.564;2022-12-29T10:51:52;3.03;;;1.67;;
15230;SDS011;32569;51.762;8.564;2022-12-29T10:54:23;3.20;;;1.57;;
15230;SDS011;32569;51.762;8.564;2022-12-29T10:56:54;2.57;;;1.30;;
15230;SDS011;32569;51.762;8.564;2022-12-29T10:59:28;3.27;;;1.90;;
15230;SDS011;32569;51.762;8.564;2022-12-29T11:02:14;1.50;;;1.40;;
15230;SDS011;32569;51.762;8.564;2022-12-29T11:04:57;3.63;;;1.50;;
15230;SDS011;32569;51.762;8.564;2022-12-29T11:07:29;2.10;;;1.53;;
15230;SDS011;32569;51.762;8.564;2022-12-29T11:12:48;1.73;;;1.50;;
15230;SDS011;32569;51.762;8.564;2022-12-29T11:15:22;3.53;;;2.23;;
15230;SDS011;32569;51.762;8.564;2022-12-29T11:17:51;3.40;;;1.70;;
15230;SDS011;32569;51.762;8.564;2022-12-29T11:20:31;3.63;;;1.70;;
15230;SDS011;32569;51.762;8.564;2022-12-29T11:23:00;2.53;;;1.63;;
15230;SDS011;32569;51.762;8.564;2022-12-29T11:25:28;4.77;;;1.87;;
15230;SDS011;32569;51.762;8.564;2022-12-29T11:27:55;2.47;;;1.83;;
15230;SDS011;32569;51.762;8.564;2022-12-29T11:30:25;3.83;;;2.13;;
15230;SDS011;32569;51.762;8.564;2022-12-29T11:32:53;2.33;;;1.50;;
15230;SDS011;32569;51.762;8.564;2022-12-29T11:35:35;2.73;;;1.70;;
15230;SDS011;32569;51.762;8.564;2022-12-29T11:38:05;3.67;;;1.90;;
15230;SDS011;32569;51.762;8.564;2022-12-29T11:40:42;3.47;;;1.87;;
15230;SDS011;32569;51.762;8.564;2022-12-29T11:43:11;2.83;;;1.77;;
15230;SDS011;32569;51.762;8.564;2022-12-29T11:45:51;2.90;;;1.87;;
15230;SDS011;32569;51.762;8.564;2022-12-29T11:48:21;3.43;;;1.63;;
15230;SDS011;32569;51.762;8.564;2022-12-29T11:50:57;1.97;;;1.70;;
15230;SDS011;32569;51.762;8.564;2022-12-29T11:53:27;4.37;;;2.10;;
15230;SDS011;32569;51.762;8.564;2022-12-29T11:56:04;4.37;;;1.60;;
15230;SDS011;32569;51.762;8.564;2022-12-29T11:58:34;3.97;;;1.80;;
15230;SDS011;32569;51.762;8.564;2022-12-29T12:01:02;4.77;;;2.03;;
15230;SDS011;32569;51.762;8.564;2022-12-29T12:03:34;2.50;;;1.90;;
15230;SDS011;32569;51.762;8.564;2022-12-29T12:06:05;4.40;;;2.60;;
15230;SDS011;32569;51.762;8.564;2022-12-29T12:08:37;4.97;;;2.30;;
15230;SDS011;32569;51.762;8.564;2022-12-29T12:11:11;5.20;;;2.10;;
15230;SDS011;32569;51.762;8.564;2022-12-29T12:13:42;3.20;;;2.03;;
15230;SDS011;32569;51.762;8.564;2022-12-29T12:16:17;4.37;;;1.70;;
15230;SDS011;32569;51.762;8.564;2022-12-29T12:18:47;4.80;;;2.77;;
15230;SDS011;32569;51.762;8.564;2022-12-29T12:21:20;3.23;;;2.87;;
15230;SDS011;32569;51.762;8.564;2022-12-29T12:23:57;4.47;;;2.40;;
15230;SDS011;32569;51.762;8.564;2022-12-29T12:26:44;2.43;;;1.83;;
15230;SDS011;32569;51.762;8.564;2022-12-29T12:29:22;3.70;;;1.83;;
15230;SDS011;32569;51.762;8.564;2022-12-29T12:31:57;2.73;;;1.60;;
15230;SDS011;32569;51.762;8.564;2022-12-29T12:34:29;4.63;;;1.97;;
15230;SDS011;32569;51.762;8.564;2022-12-29T12:37:11;3.27;;;1.87;;
15230;SDS011;32569;51.762;8.564;2022-12-29T12:40:05;2.70;;;1.87;;
15230;SDS011;32569;51.762;8.564;2022-12-29T12:43:03;2.77;;;1.73;;
15230;SDS011;32569;51.762;8.564;2022-12-29T12:45:44;3.20;;;1.77;;
15230;SDS011;32569;51.762;8.564;2022-12-29T12:48:20;3.37;;;2.00;;
15230;SDS011;32569;51.762;8.564;2022-12-29T12:50:59;4.43;;;1.90;;
15230;SDS011;32569;51.762;8.564;2022-12-29T12:53:38;5.37;;;2.03;;
15230;SDS011;32569;51.762;8.564;2022-12-29T12:56:32;4.90;;;1.90;;
15230;SDS011;32569;51.762;8.564;2022-12-29T12:59:12;3.63;;;1.63;;
15230;SDS011;32569;51.762;8.564;2022-12-29T13:01:49;5.67;;;1.60;;
15230;SDS011;32569;51.762;8.564;2022-12-29T13:07:39;2.50;;;1.50;;
15230;SDS011;32569;51.762;8.564;2022-12-29T13:10:32;3.70;;;1.87;;
15230;SDS011;32569;51.762;8.564;2022-12-29T13:13:14;2.67;;;1.83;;
15230;SDS011;32569;51.762;8.564;2022-12-29T13:15:56;3.43;;;1.63;;
15230;SDS011;32569;51.762;8.564;2022-12-29T13:18:30;9.03;;;2.90;;
15230;SDS011;32569;51.762;8.564;2022-12-29T13:21:05;4.20;;;1.63;;
15230;SDS011;32569;51.762;8.564;2022-12-29T13:23:38;2.90;;;1.70;;
15230;SDS011;32569;51.762;8.564;2022-12-29T13:26:12;4.80;;;1.70;;
15230;SDS011;32569;51.762;8.564;2022-12-29T13:28:47;4.60;;;1.63;;
15230;SDS011;32569;51.762;8.564;2022-12-29T13:31:20;5.93;;;1.90;;
15230;SDS011;32569;51.762;8.564;2022-12-29T13:33:56;4.80;;;1.60;;
15230;SDS011;32569;51.762;8.564;2022-12-29T13:36:33;7.07;;;3.23;;
15230;SDS011;32569;51.762;8.564;2022-12-29T13:39:04;2.80;;;1.70;;
15230;SDS011;32569;51.762;8.564;2022-12-29T13:41:41;2.57;;;1.53;;
15230;SDS011;32569;51.762;8.564;2022-12-29T13:44:14;2.50;;;1.30;;
15230;SDS011;32569;51.762;8.564;2022-12-29T13:46:45;6.13;;;1.90;;
15230;SDS011;32569;51.762;8.564;2022-12-29T13:49:13;3.73;;;1.47;;
15230;SDS011;32569;51.762;8.564;2022-12-29T13:51:42;4.00;;;1.50;;
15230;SDS011;32569;51.762;8.564;2022-12-29T13:54:17;5.20;;;1.57;;
15230;SDS011;32569;51.762;8.564;2022-12-29T13:56:56;1.93;;;1.50;;
15230;SDS011;32569;51.762;8.564;2022-12-29T13:59:36;5.83;;;1.80;;
15230;SDS011;32569;51.762;8.564;2022-12-29T14:02:11;5.70;;;1.90;;
15230;SDS011;32569;51.762;8.564;2022-12-29T14:04:58;2.23;;;1.73;;
15230;SDS011;32569;51.762;8.564;2022-12-29T14:07:26;3.43;;;1.40;;
15230;SDS011;32569;51.762;8.564;2022-12-29T14:09:54;4.13;;;1.70;;
15230;SDS011;32569;51.762;8.564;2022-12-29T14:12:29;2.90;;;1.60;;
15230;SDS011;32569;51.762;8.564;2022-12-29T14:15:05;4.80;;;1.50;;
15230;SDS011;32569;51.762;8.564;2022-12-29T14:17:59;4.07;;;2.07;;
15230;SDS011;32569;51.762;8.564;2022-12-29T14:20:30;3.77;;;1.53;;
15230;SDS011;32569;51.762;8.564;2022-12-29T14:23:00;2.83;;;1.53;;
15230;SDS011;32569;51.762;8.564;2022-12-29T14:25:58;5.40;;;2.53;;
15230;SDS011;32569;51.762;8.564;2022-12-29T14:28:29;3.03;;;1.60;;
15230;SDS011;32569;51.762;8.564;2022-12-29T14:30:59;4.90;;;1.50;;
15230;SDS011;32569;51.762;8.564;2022-12-29T14:33:27;3.30;;;1.40;;
15230;SDS011;32569;51.762;8.564;2022-12-29T14:35:56;3.30;;;1.90;;
15230;SDS011;32569;51.762;8.564;2022-12-29T14:38:44;5.07;;;1.70;;
15230;SDS011;32569;51.762;8.564;2022-12-29T14:41:15;4.77;;;1.60;;
15230;SDS011;32569;51.762;8.564;2022-12-29T14:44:01;4.13;;;1.57;;
15230;SDS011;32569;51.762;8.564;2022-12-29T14:46:44;7.20;;;1.97;;
15230;SDS011;32569;51.762;8.564;2022-12-29T14:49:15;5.27;;;1.77;;
15230;SDS011;32569;51.762;8.564;2022-12-29T14:51:45;3.20;;;1.50;;
15230;SDS011;32569;51.762;8.564;2022-12-29T14:57:10;2.93;;;1.63;;
15230;SDS011;32569;51.762;8.564;2022-12-29T14:59:46;2.90;;;1.50;;
15230;SDS011;32569;51.762;8.564;2022-12-29T15:02:15;3.03;;;1.30;;
15230;SDS011;32569;51.762;8.564;2022-12-29T15:04:45;5.03;;;1.90;;
15230;SDS011;32569;51.762;8.564;2022-12-29T15:07:12;5.17;;;1.77;;
15230;SDS011;32569;51.762;8.564;2022-12-29T15:09:41;6.90;;;3.37;;
15230;SDS011;32569;51.762;8.564;2022-12-29T15:12:16;4.10;;;2.40;;
15230;SDS011;32569;51.762;8.564;2022-12-29T15:14:51;3.50;;;1.50;;
15230;SDS011;32569;51.762;8.564;2022-12-29T15:17:23;4.80;;;1.77;;
15230;SDS011;32569;51.762;8.564;2022-12-29T15:19:52;3.27;;;1.70;;
15230;SDS011;32569;51.762;8.564;2022-12-29T15:22:19;5.30;;;1.90;;
15230;SDS011;32569;51.762;8.564;2022-12-29T15:24:46;3.97;;;2.40;;
15230;SDS011;32569;51.762;8.564;2022-12-29T15:27:17;2.93;;;1.57;;
15230;SDS011;32569;51.762;8.564;2022-12-29T15:29:46;3.53;;;1.73;;
15230;SDS011;32569;51.762;8.564;2022-12-29T15:32:19;6.07;;;1.90;;